Time;durP1;ratioP1;P1;durP2;ratioP2;P2;SDS_P1;SDS_P2;PMS_P1;PMS_P2;Temp;Humidity;BMP_temperature;BMP_pressure;BME280_temperature;BME280_humidity;BME280_pressure;Samples;Min_cycle;Max_cycle;Signal;HPM_P1;HPM_P2
2022/03/17 00:18:31;;;;;;;150.00;73.77;;;;;;;-0.21;71.28;100344.98;4160399;84;21121;-84
2022/03/17 00:24:32;;;;;;;141.33;67.60;;;;;;;-0.27;71.30;100340.70;4163002;84;21002;-85
2022/03/17 00:30:43;;;;;;;141.90;64.37;;;;;;;-0.22;71.72;100345.52;4166692;84;21010;-85
2022/03/17 00:37:03;;;;;;;161.00;76.60;;;;;;;-0.17;71.49;100357.62;4165188;84;21054;-84
2022/03/17 00:43:18;;;;;;;174.80;81.60;;;;;;;-0.32;71.15;100352.28;4158541;85;21093;-84
2022/03/17 00:49:22;;;;;;;170.72;76.33;;;;;;;-0.52;71.24;100359.55;4138524;84;21589;-84
2022/03/17 00:55:24;;;;;;;158.67;73.27;;;;;;;-0.66;71.49;100358.48;4154157;84;21086;-84
2022/03/17 01:16:11;;;;;;;137.20;66.10;;;;;;;-0.98;72.11;100373.48;4159665;84;21112;-84
2022/03/17 01:22:12;;;;;;;143.17;69.70;;;;;;;-0.88;72.47;100372.70;4159902;84;21033;-85
2022/03/17 01:28:24;;;;;;;135.00;67.17;;;;;;;-0.69;72.56;100386.69;4158465;84;21575;-83
2022/03/17 01:48:38;;;;;;;134.22;64.55;;;;;;;-0.29;73.14;100381.33;4144072;84;21002;-85
2022/03/17 01:55:43;;;;;;;130.35;63.52;;;;;;;-0.23;73.32;100382.94;4165186;84;21070;-85
2022/03/17 02:02:24;;;;;;;125.10;61.95;;;;;;;-0.18;73.65;100380.25;4161656;85;21553;-84
2022/03/17 02:08:32;;;;;;;131.53;63.87;;;;;;;-0.16;73.84;100385.36;4163122;85;21105;-84
2022/03/17 02:15:06;;;;;;;132.03;63.57;;;;;;;-0.21;73.79;100390.21;4160650;84;21063;-84
2022/03/17 02:21:09;;;;;;;132.07;63.30;;;;;;;-0.29;74.21;100386.72;4159291;84;21070;-84
2022/03/17 02:27:34;;;;;;;119.87;61.67;;;;;;;-0.36;74.40;100394.80;4156703;84;21034;-85
2022/03/17 02:33:38;;;;;;;137.30;63.37;;;;;;;-0.38;74.48;100407.70;4152660;84;21081;-85
2022/03/17 02:39:39;;;;;;;117.37;60.07;;;;;;;-0.53;74.17;100404.46;4157295;84;21498;-84
2022/03/17 02:45:43;;;;;;;111.13;55.73;;;;;;;-0.71;74.53;100406.87;4158630;84;21002;-84
2022/03/17 02:51:46;;;;;;;126.30;60.80;;;;;;;-0.76;74.77;100417.61;4157213;84;21109;-84
2022/03/17 02:57:50;;;;;;;131.50;63.77;;;;;;;-0.76;74.66;100422.98;4158566;84;21014;-84
2022/03/17 03:10:57;;;;;;;124.00;60.80;;;;;;;-1.09;75.24;100426.13;4156219;84;21599;-83
2022/03/17 03:17:01;;;;;;;123.93;62.70;;;;;;;-1.01;75.77;100439.06;4162269;83;21054;-83
2022/03/17 03:23:13;;;;;;;123.40;62.13;;;;;;;-0.93;75.95;100438.02;4158374;84;21062;-83
2022/03/17 03:29:41;;;;;;;134.07;62.43;;;;;;;-0.89;76.06;100431.59;4157059;84;21019;-84
2022/03/17 03:42:15;;;;;;;121.17;57.90;;;;;;;-0.91;76.35;100451.98;4157049;84;20988;-84
2022/03/17 03:48:16;;;;;;;124.93;61.67;;;;;;;-0.91;76.35;100464.64;4157206;84;21058;-85
2022/03/17 03:54:27;;;;;;;121.73;59.43;;;;;;;-0.91;76.42;100469.45;4160771;84;21046;-85
2022/03/17 04:06:31;;;;;;;133.40;61.17;;;;;;;-1.07;76.55;100479.91;4155921;84;21038;-83
2022/03/17 04:12:33;;;;;;;133.73;64.00;;;;;;;-1.15;76.81;100483.63;4157901;84;21065;-83
2022/03/17 04:18:34;;;;;;;135.63;64.50;;;;;;;-1.25;76.87;100492.44;4156636;84;21719;-83
2022/03/17 04:24:38;;;;;;;131.00;64.47;;;;;;;-1.30;77.18;100499.13;4167055;83;173321;-83
2022/03/17 04:30:39;;;;;;;131.10;62.67;;;;;;;-1.36;77.21;100502.07;4199472;83;21057;-82
2022/03/17 04:36:40;;;;;;;131.30;65.57;;;;;;;-1.42;77.54;100501.75;4183125;83;21575;-82
2022/03/17 04:42:42;;;;;;;135.00;63.63;;;;;;;-1.50;77.96;100506.30;4197843;83;21472;-82
2022/03/17 04:48:44;;;;;;;130.27;60.90;;;;;;;-1.58;77.87;100513.48;4195933;83;21110;-82
2022/03/17 04:54:50;;;;;;;134.43;64.10;;;;;;;-1.63;77.92;100527.69;4197017;83;21165;-82
2022/03/17 05:00:53;;;;;;;129.07;65.10;;;;;;;-1.66;78.00;100532.23;4186207;83;21099;-81
2022/03/17 05:06:55;;;;;;;138.20;67.27;;;;;;;-1.77;78.30;100538.05;4202879;83;20972;-82
2022/03/17 05:12:57;;;;;;;131.77;65.83;;;;;;;-1.88;78.53;100521.59;4191593;83;21067;-84
2022/03/17 05:18:58;;;;;;;129.13;64.67;;;;;;;-1.91;79.02;100524.00;4202702;83;21108;-82
2022/03/17 05:24:59;;;;;;;129.40;62.23;;;;;;;-1.93;79.23;100522.91;4194567;83;21043;-84
2022/03/17 05:31:02;;;;;;;132.97;62.57;;;;;;;-1.89;79.92;100525.34;4197564;83;21654;-81
2022/03/17 05:37:03;;;;;;;134.10;62.30;;;;;;;-1.82;80.71;100529.16;4199977;83;22127;-82
2022/03/17 05:43:08;;;;;;;128.03;62.13;;;;;;;-1.80;80.45;100534.53;4197377;83;21028;-82
2022/03/17 05:49:12;;;;;;;124.43;62.60;;;;;;;-1.67;79.93;100538.13;4190199;83;21030;-82
2022/03/17 06:02:54;;;;;;;139.20;63.53;;;;;;;-1.37;79.96;100554.16;4190348;83;21083;-82
2022/03/17 06:08:56;;;;;;;126.77;62.63;;;;;;;-1.15;79.99;100566.40;4197275;83;22158;-83
2022/03/17 06:14:59;;;;;;;130.60;61.90;;;;;;;-0.78;80.02;100572.48;4195453;83;21082;-82
2022/03/17 06:21:00;;;;;;;130.13;64.40;;;;;;;-0.43;79.89;100571.28;4196118;83;21066;-83
2022/03/17 06:27:02;;;;;;;132.77;65.27;;;;;;;-0.21;80.01;100566.49;4187471;83;21107;-81
2022/03/17 06:33:05;;;;;;;124.35;62.62;;;;;;;0.13;79.95;100550.62;4191877;83;21026;-82
2022/03/17 06:39:06;;;;;;;132.30;62.80;;;;;;;0.48;80.03;100557.89;4194956;83;21015;-83
2022/03/17 06:45:08;;;;;;;130.20;64.42;;;;;;;0.84;80.26;100564.31;4195705;83;21016;-83
2022/03/17 06:51:25;;;;;;;122.53;61.58;;;;;;;1.26;79.94;100557.97;4201876;83;21087;-83
2022/03/17 06:57:30;;;;;;;114.77;60.20;;;;;;;1.74;79.70;100565.02;4195778;83;21041;-84
2022/03/17 07:03:32;;;;;;;134.32;64.60;;;;;;;2.28;79.38;100580.04;4191116;84;21348;-83
2022/03/17 07:09:42;;;;;;;116.77;62.95;;;;;;;2.67;78.90;100581.31;4205054;83;21039;-83
2022/03/17 07:15:43;;;;;;;120.55;62.17;;;;;;;2.66;78.97;100586.48;4196016;83;21063;-83
2022/03/17 07:28:41;;;;;;;120.15;62.73;;;;;;;2.66;78.30;100598.08;4211736;83;21066;-83
2022/03/17 07:41:16;;;;;;;120.72;59.03;;;;;;;3.04;77.29;100599.06;4225746;83;21079;-85
2022/03/17 07:47:48;;;;;;;111.90;59.40;;;;;;;3.38;76.90;100602.48;4239184;83;21052;-85
2022/03/17 07:53:51;;;;;;;101.22;57.27;;;;;;;3.87;76.09;100608.91;4203488;83;21042;-85
2022/03/17 08:00:06;;;;;;;103.38;56.50;;;;;;;4.45;75.85;100623.73;4213023;83;21079;-86
2022/03/17 08:06:15;;;;;;;95.73;55.50;;;;;;;5.06;75.25;100618.89;4212593;82;21099;-86
2022/03/17 08:12:16;;;;;;;99.97;53.78;;;;;;;5.49;74.71;100618.06;4213000;83;21627;-87
2022/03/17 08:18:18;;;;;;;92.40;51.83;;;;;;;5.88;72.34;100619.18;4208350;83;21023;-88
2022/03/17 08:24:19;;;;;;;91.25;52.15;;;;;;;6.12;71.68;100621.07;4186179;83;21018;-87
2022/03/17 08:30:21;;;;;;;90.20;49.45;;;;;;;6.44;69.03;100620.64;4194458;83;21081;-89
2022/03/17 08:36:25;;;;;;;84.58;47.80;;;;;;;6.72;69.77;100613.38;4186674;83;21026;-87
2022/03/17 08:42:26;;;;;;;70.83;39.95;;;;;;;7.18;68.73;100630.16;4193896;82;21663;-87
2022/03/17 08:54:48;;;;;;;48.95;28.60;;;;;;;8.42;65.12;100617.27;4204884;83;21069;-86
2022/03/17 09:00:49;;;;;;;56.15;31.70;;;;;;;8.80;63.61;100623.63;4199515;83;20980;-88
2022/03/17 09:06:51;;;;;;;51.30;30.10;;;;;;;9.42;62.79;100624.77;4199188;83;21069;-88
2022/03/17 09:12:59;;;;;;;48.63;29.60;;;;;;;9.93;57.31;100634.62;4195107;83;22029;-86
2022/03/17 09:18:57;;;;;;;45.70;29.18;;;;;;;10.15;58.32;100634.34;4187419;82;21093;-88
2022/03/17 09:24:59;;;;;;;45.00;29.05;;;;;;;10.47;55.43;100642.41;4191135;83;21204;-88
2022/03/17 09:31:00;;;;;;;43.05;27.65;;;;;;;10.73;53.76;100653.93;4179775;83;21105;-87
2022/03/17 09:37:02;;;;;;;36.13;23.62;;;;;;;11.03;52.53;100645.83;4185444;83;21630;-87
2022/03/17 09:43:19;;;;;;;33.18;22.17;;;;;;;11.10;49.60;100640.62;4188567;83;21153;-87
2022/03/17 09:49:21;;;;;;;29.35;19.98;;;;;;;11.66;51.69;100641.19;4204047;83;21090;-87
2022/03/17 09:55:23;;;;;;;26.45;17.42;;;;;;;12.20;47.59;100643.87;4198501;83;21066;-88
2022/03/17 10:01:28;;;;;;;23.10;16.93;;;;;;;12.44;46.01;100641.66;4193508;83;21042;-87
2022/03/17 10:07:35;;;;;;;27.32;17.48;;;;;;;12.58;46.09;100640.70;4192772;83;21110;-87
2022/03/17 10:13:42;;;;;;;27.87;17.92;;;;;;;12.72;44.78;100631.48;4190628;83;21133;-88
2022/03/17 10:19:43;;;;;;;27.48;16.12;;;;;;;12.88;43.14;100635.66;4196594;83;21065;-87
2022/03/17 10:25:44;;;;;;;23.52;16.07;;;;;;;12.95;42.27;100628.98;4207503;82;21024;-87
2022/03/17 10:32:06;;;;;;;23.32;15.55;;;;;;;13.07;42.53;100626.20;4196911;82;21034;-89
2022/03/17 10:38:16;;;;;;;26.07;17.02;;;;;;;13.49;40.80;100625.92;4195993;83;21036;-88
2022/03/17 10:44:19;;;;;;;24.25;16.15;;;;;;;13.81;40.76;100615.91;4178718;83;21085;-86
2022/03/17 10:50:22;;;;;;;22.58;14.20;;;;;;;13.83;39.50;100623.81;4205911;83;21119;-88
2022/03/17 10:56:24;;;;;;;19.75;13.75;;;;;;;13.83;39.14;100622.44;4180609;83;21093;-87
2022/03/17 11:02:27;;;;;;;22.58;14.60;;;;;;;13.92;37.61;100621.69;4140489;84;21198;-87
2022/03/17 11:08:30;;;;;;;19.70;13.80;;;;;;;13.54;37.09;100616.03;4162098;84;21059;-87
2022/03/17 11:14:32;;;;;;;18.85;12.53;;;;;;;13.91;37.21;100623.63;4148672;85;21035;-89
2022/03/17 11:20:34;;;;;;;19.25;13.45;;;;;;;13.90;37.23;100619.86;4188198;82;21506;-89
2022/03/17 11:26:39;;;;;;;21.02;13.45;;;;;;;14.22;36.00;100619.99;4194751;83;21061;-87
2022/03/17 11:32:55;;;;;;;17.70;13.28;;;;;;;14.34;34.98;100621.30;4170262;83;21082;-88
2022/03/17 11:39:18;;;;;;;14.93;10.98;;;;;;;13.94;36.78;100610.53;4205297;83;21011;-88
2022/03/17 11:45:26;;;;;;;15.75;10.43;;;;;;;13.92;35.85;100610.67;4195468;83;21346;-87
2022/03/17 11:51:28;;;;;;;20.60;12.37;;;;;;;13.76;34.72;100603.02;4199285;84;22324;-90
2022/03/17 11:57:30;;;;;;;17.92;12.53;;;;;;;13.70;33.88;100602.47;4194284;83;21113;-87
2022/03/17 12:03:45;;;;;;;16.05;10.63;;;;;;;13.36;32.56;100600.45;4194887;83;21494;-87
2022/03/17 12:09:48;;;;;;;18.55;12.00;;;;;;;12.75;34.49;100606.64;4195574;83;21086;-87
2022/03/17 12:15:56;;;;;;;15.83;11.53;;;;;;;12.38;32.86;100607.34;4198602;83;21062;-86
2022/03/17 12:22:10;;;;;;;16.85;11.28;;;;;;;12.01;34.48;100605.84;4175552;83;21565;-87
2022/03/17 12:28:12;;;;;;;15.25;10.15;;;;;;;11.91;34.11;100599.44;4167916;84;21090;-87
2022/03/17 12:34:16;;;;;;;14.70;9.63;;;;;;;12.10;33.72;100605.12;4174929;83;21947;-87
2022/03/17 12:40:20;;;;;;;17.37;10.85;;;;;;;11.82;31.58;100594.66;4171670;84;21094;-87
2022/03/17 12:46:22;;;;;;;17.65;9.90;;;;;;;11.33;33.09;100584.78;4080921;85;21044;-87
2022/03/17 12:52:30;;;;;;;27.87;12.28;;;;;;;11.27;33.19;100581.48;4086101;85;21036;-88
2022/03/17 12:58:40;;;;;;;22.37;13.40;;;;;;;11.20;34.13;100583.20;4174088;83;21346;-88
2022/03/17 13:04:42;;;;;;;24.12;12.88;;;;;;;11.41;34.44;100582.51;4173699;84;21023;-87
2022/03/17 13:17:05;;;;;;;16.27;10.35;;;;;;;11.68;34.54;100590.88;4171590;84;21022;-88
2022/03/17 13:23:35;;;;;;;17.35;10.95;;;;;;;11.57;34.61;100584.81;4178414;84;21062;-87
2022/03/17 13:29:40;;;;;;;19.25;10.72;;;;;;;11.28;34.78;100585.81;4175318;84;21073;-88
2022/03/17 13:35:46;;;;;;;15.98;9.98;;;;;;;10.96;33.97;100572.98;4175097;84;21081;-86
2022/03/17 13:42:02;;;;;;;15.75;9.70;;;;;;;10.52;34.92;100570.43;4178705;84;21089;-88
2022/03/17 13:48:10;;;;;;;18.92;10.90;;;;;;;10.48;35.14;100575.55;4176619;84;21081;-87
2022/03/17 13:54:13;;;;;;;16.90;9.50;;;;;;;10.43;35.23;100575.19;4177519;84;21078;-87
2022/03/17 14:00:22;;;;;;;15.70;9.83;;;;;;;10.38;35.36;100574.02;4176968;84;21582;-87
2022/03/17 14:06:33;;;;;;;14.98;8.88;;;;;;;10.38;35.15;100575.39;4176587;84;21081;-87
2022/03/17 14:12:36;;;;;;;15.48;9.20;;;;;;;10.31;34.82;100576.52;4179191;84;21085;-87
2022/03/17 14:18:37;;;;;;;15.13;8.98;;;;;;;10.12;34.76;100580.29;4178010;84;21026;-86
2022/03/17 14:24:41;;;;;;;12.75;8.58;;;;;;;9.83;34.88;100588.52;4174287;84;21083;-87
2022/03/17 14:30:42;;;;;;;13.53;7.45;;;;;;;9.54;34.95;100583.85;4173057;84;21098;-88
2022/03/17 14:36:46;;;;;;;12.63;7.42;;;;;;;9.34;34.86;100579.13;4173304;84;21058;-87
2022/03/17 14:42:50;;;;;;;14.70;8.10;;;;;;;9.22;34.79;100586.42;4172864;84;21008;-87
2022/03/17 14:48:53;;;;;;;16.02;7.42;;;;;;;9.06;34.77;100584.79;4172228;84;21051;-88
2022/03/17 14:54:54;;;;;;;13.62;7.83;;;;;;;8.93;34.93;100583.05;4172515;84;21039;-88
2022/03/17 15:00:57;;;;;;;18.70;8.60;;;;;;;8.78;34.96;100582.22;4173217;84;21094;-87
2022/03/17 15:06:59;;;;;;;14.55;7.60;;;;;;;8.68;35.19;100580.38;4172439;84;21061;-87
2022/03/17 15:13:03;;;;;;;15.23;7.55;;;;;;;8.59;35.18;100581.77;4170838;84;21192;-86
2022/03/17 15:19:04;;;;;;;10.93;6.80;;;;;;;8.48;35.25;100588.68;4178339;83;21141;-87
2022/03/17 15:25:06;;;;;;;15.55;7.33;;;;;;;8.40;35.35;100596.86;4199491;83;21638;-87
2022/03/17 15:31:08;;;;;;;13.75;6.97;;;;;;;8.30;35.33;100603.44;4195548;83;21058;-87
2022/03/17 15:37:09;;;;;;;14.35;7.87;;;;;;;8.17;35.56;100603.58;4197405;83;21042;-86
2022/03/17 15:43:11;;;;;;;20.10;9.30;;;;;;;8.09;35.64;100613.91;4195842;84;21065;-87
2022/03/17 15:49:13;;;;;;;16.35;7.85;;;;;;;7.95;35.72;100610.76;4197916;83;21046;-86
2022/03/17 15:55:15;;;;;;;13.53;7.75;;;;;;;7.81;35.85;100612.03;4202837;83;21030;-88
2022/03/17 16:01:20;;;;;;;14.90;8.58;;;;;;;7.65;35.98;100614.95;4194769;83;21137;-87
2022/03/17 16:07:19;;;;;;;24.37;10.43;;;;;;;7.46;36.18;100613.86;4196930;83;21083;-88
2022/03/17 16:19:40;;;;;;;22.70;12.65;;;;;;;7.09;37.71;100617.62;4200394;82;20998;-87
2022/03/17 16:25:44;;;;;;;23.75;13.08;;;;;;;6.84;37.87;100620.99;4203084;83;21839;-87
2022/03/17 16:31:46;;;;;;;31.40;14.95;;;;;;;6.66;38.03;100639.67;4198881;83;21014;-87
2022/03/17 16:37:48;;;;;;;40.00;19.52;;;;;;;6.49;38.88;100649.88;4204627;83;21074;-87
2022/03/17 16:43:50;;;;;;;25.88;13.30;;;;;;;6.30;39.07;100651.95;4202535;83;21065;-86
2022/03/17 16:49:51;;;;;;;24.67;13.00;;;;;;;6.10;38.92;100672.25;4206782;83;21095;-88
2022/03/17 16:55:53;;;;;;;21.15;11.88;;;;;;;5.95;39.52;100677.21;4205730;83;21065;-87
2022/03/17 17:01:54;;;;;;;26.35;13.43;;;;;;;5.78;39.70;100680.50;4208632;83;22079;-87
2022/03/17 17:07:55;;;;;;;26.10;13.20;;;;;;;5.64;39.95;100682.41;4200555;82;22216;-88
2022/03/17 17:13:57;;;;;;;22.90;11.63;;;;;;;5.47;40.23;100687.63;4203047;83;21066;-86
2022/03/17 17:20:03;;;;;;;25.77;13.93;;;;;;;5.36;40.52;100688.92;4202957;83;21585;-86
2022/03/17 17:32:26;;;;;;;26.02;12.95;;;;;;;5.14;40.66;100702.36;4204124;83;21471;-88
2022/03/17 17:38:37;;;;;;;28.10;15.43;;;;;;;5.02;40.71;100714.78;4199640;83;21007;-86
2022/03/17 17:51:31;;;;;;;28.35;16.12;;;;;;;4.80;40.94;100731.16;4204384;83;21054;-87
2022/03/17 17:57:57;;;;;;;28.40;14.18;;;;;;;4.66;41.23;100719.44;4202223;82;22209;-86
2022/03/17 18:04:00;;;;;;;31.10;14.23;;;;;;;4.58;41.49;100720.09;4097043;81;10000025;-86
2022/03/17 18:10:02;;;;;;;33.23;15.18;;;;;;;4.53;41.92;100726.13;4198263;83;21065;-88
2022/03/17 18:16:05;;;;;;;60.20;25.12;;;;;;;4.51;41.83;100728.34;4200812;84;21070;-87
2022/03/17 18:22:20;;;;;;;37.88;19.25;;;;;;;4.42;41.83;100735.50;4192542;82;21107;-86
2022/03/17 18:28:24;;;;;;;32.42;17.00;;;;;;;4.33;41.91;100740.78;4186073;83;21104;-86
2022/03/17 18:34:44;;;;;;;30.60;15.68;;;;;;;4.23;41.91;100754.46;4186034;85;21078;-86
2022/03/17 18:40:48;;;;;;;47.33;21.50;;;;;;;4.13;42.07;100760.56;4186896;83;21411;-85
2022/03/17 18:47:31;;;;;;;41.40;18.50;;;;;;;4.03;42.23;100757.97;4187131;84;21082;-88
2022/03/17 18:53:33;;;;;;;62.08;25.62;;;;;;;3.92;42.40;100763.24;4185900;83;21027;-86
2022/03/17 18:59:34;;;;;;;38.15;18.82;;;;;;;3.82;42.43;100770.15;4185473;83;21023;-86
2022/03/17 19:05:35;;;;;;;43.45;18.30;;;;;;;3.76;42.50;100780.22;4074640;82;9999736;-86
2022/03/17 19:11:37;;;;;;;44.42;18.75;;;;;;;3.67;42.59;100791.42;4189035;83;21946;-86
2022/03/17 19:17:38;;;;;;;38.88;18.48;;;;;;;3.60;42.96;100794.20;4191013;83;21027;-87
2022/03/17 19:24:22;;;;;;;115.45;41.35;;;;;;;3.53;42.98;100793.18;4188632;84;21024;-86
2022/03/17 19:37:09;;;;;;;47.48;21.20;;;;;;;3.34;43.17;100793.63;4187577;83;21991;-86
2022/03/17 19:56:31;;;;;;;56.35;22.75;;;;;;;3.07;43.69;100797.34;4189454;85;21112;-86
2022/03/17 20:02:35;;;;;;;50.20;23.32;;;;;;;3.00;43.85;100792.28;4071432;82;10000393;-86
2022/03/17 20:16:00;;;;;;;45.38;20.40;;;;;;;2.87;43.88;100801.02;4189735;85;21000;-85
2022/03/17 20:22:10;;;;;;;44.55;18.62;;;;;;;2.85;43.92;100811.30;4190565;83;21905;-86
2022/03/17 20:28:23;;;;;;;34.73;15.32;;;;;;;2.85;43.84;100824.83;4044899;85;21089;-88
2022/03/17 20:34:27;;;;;;;39.78;16.40;;;;;;;2.90;43.76;100823.45;4056324;86;21467;-86
2022/03/17 20:40:29;;;;;;;36.20;16.10;;;;;;;2.95;43.59;100834.25;4068094;86;21125;-86
2022/03/17 20:46:48;;;;;;;36.53;15.98;;;;;;;2.91;43.50;100835.88;4048318;86;21879;-86
2022/03/17 21:27:04;;;;;;;32.75;14.03;;;;;;;2.70;42.82;100857.38;4203423;82;20992;-86
2022/03/17 21:33:06;;;;;;;28.32;12.70;;;;;;;2.69;42.70;100861.72;4165604;84;21062;-87
2022/03/17 21:54:31;;;;;;;107.07;36.03;;;;;;;2.59;42.47;100881.50;4156910;85;21170;-84
2022/03/17 22:14:14;;;;;;;39.67;17.20;;;;;;;1.93;42.80;100914.38;4159418;85;21055;-86
2022/03/17 22:20:15;;;;;;;87.60;28.30;;;;;;;1.73;43.29;100921.94;4159452;85;21095;-86
2022/03/17 22:26:39;;;;;;;58.80;23.92;;;;;;;1.60;43.39;100926.52;4161367;84;21086;-86
2022/03/17 22:32:41;;;;;;;96.97;34.08;;;;;;;1.50;43.51;100918.44;4175990;85;21107;-86
2022/03/17 22:38:47;;;;;;;66.77;23.85;;;;;;;1.42;43.65;100918.44;4172508;84;21124;-85
2022/03/17 22:45:12;;;;;;;54.33;19.32;;;;;;;1.36;43.79;100926.23;4174432;85;21055;-85
2022/03/17 22:58:35;;;;;;;48.87;18.75;;;;;;;1.20;44.05;100931.34;4178542;85;21071;-85
2022/03/17 23:04:36;;;;;;;49.65;20.90;;;;;;;1.11;44.36;100933.48;4173297;84;21091;-87
2022/03/17 23:10:42;;;;;;;40.95;17.57;;;;;;;1.05;44.79;100924.55;4178215;84;21129;-86
2022/03/17 23:17:05;;;;;;;50.40;20.95;;;;;;;1.00;45.24;100923.18;4177271;84;21050;-86
2022/03/17 23:23:20;;;;;;;42.48;18.77;;;;;;;0.93;45.35;100933.95;4167920;85;22027;-85
2022/03/17 23:36:27;;;;;;;44.58;17.30;;;;;;;0.80;45.19;100942.55;4180199;85;21083;-85
2022/03/17 23:42:54;;;;;;;59.42;20.92;;;;;;;0.79;45.28;100945.78;4174497;85;21518;-85
2022/03/17 23:49:16;;;;;;;46.48;18.75;;;;;;;0.77;45.29;100955.19;4174075;84;21066;-85
